Terminal Aerodrome Forecast
Issued by NWS Green Bay, WI

Home | Current Version | Previous Version | Graphics & Text | Print | Product List | Glossary On
Versions: 1 2 3 4 5 6 7 8 9 10 11 12 13 14 15 16
000
FTUS43 KGRB 231128
TAFGRB
TAF
KGRB 231128Z 2312/2412 20006KT P6SM SCT250
     FM231500 21010G15KT P6SM SCT250
     FM231600 20013G19KT P6SM SCT040
     FM232300 18007KT P6SM SCT080
     FM240600 17008KT P6SM SCT050 BKN080
      TEMPO 2408/2412 3SM SHRA BKN035=

USA.gov is the U.S. government's official web portal to all federal, state and local government web resources and services.